Airport View

Enter AWOS ICAO identifier for current METAR.

ex. KFNL

KSEA 190553Z 19008KT 10SM BKN029 BKN050 OVC065 13/11 A3007 RMK AO2 SLP190 60009 T01330106 10167 20128 58001

19 Apr 2019 06:34

Phone: 206-214-2592

Other Area AWOS: KRNT - KBFI - KTIW - KPWT

TAF KSEA 190539Z 1906/2012 20009KT P6SM VCSH FEW040 OVC060 FM190900 20008KT P6SM VCSH SCT020 BKN025 OVC040 FM191400 19012KT P6SM -RA BKN025 OVC030 FM192300 22008KT P6SM VCSH OVC025 FM200700 03005KT P6SM OVC050